Terminal Aerodrome Forecast
Issued by NWS

Home | Current Version | Previous Version | Text Only | Print | Product List | Glossary On
Versions: 1 2 3 4 5 6 7 8 9 10 11 12 13 14 15 16 17 18 19 20 21 22 23
000
FTUS46 KMTR 220900 AAA
TAFSTS
TAF AMD
KSTS 220914Z 2209/2306 15003KT P6SM OVC040
     FM221200 00000KT P6SM OVC025
     FM222100 19010KT P6SM SCT025 BKN060
     FM230400 19005KT P6SM SCT060=

USA.gov is the U.S. government's official web portal to all federal, state and local government web resources and services.